createdAt,value
2023-01-31T00:01:28.583Z,10.75
2023-01-31T00:03:57.582Z,11.63
2023-01-31T00:06:33.152Z,11.27
2023-01-31T00:09:01.203Z,10.32
2023-01-31T00:11:29.599Z,11.55
2023-01-31T00:13:57.457Z,10.07
2023-01-31T00:16:24.153Z,11.30
2023-01-31T00:18:50.970Z,10.95
2023-01-31T00:21:24.532Z,10.15
2023-01-31T00:23:53.164Z,10.48
2023-01-31T00:26:29.793Z,9.73
2023-01-31T00:28:58.130Z,10.02
2023-01-31T00:31:26.873Z,10.18
2023-01-31T00:33:55.393Z,9.45
2023-01-31T00:36:25.023Z,9.82
2023-01-31T00:38:54.078Z,11.40
2023-01-31T00:41:22.298Z,10.45
2023-01-31T00:43:50.010Z,11.07
2023-01-31T00:46:17.370Z,9.90
2023-01-31T00:48:44.181Z,13.90
2023-01-31T00:51:10.906Z,10.75
2023-01-31T00:53:38.661Z,11.35
2023-01-31T00:56:08.410Z,10.65
2023-01-31T00:58:35.870Z,12.30
2023-01-31T01:01:12.763Z,9.73
2023-01-31T01:03:40.546Z,11.70
2023-01-31T01:06:08.714Z,9.85
2023-01-31T01:08:37.231Z,11.15
2023-01-31T01:11:11.834Z,11.25
2023-01-31T01:13:39.154Z,11.95
2023-01-31T01:16:19.416Z,12.40
2023-01-31T01:18:48.216Z,12.30
2023-01-31T01:21:20.563Z,13.80
2023-01-31T01:23:47.781Z,16.42
2023-01-31T01:26:16.599Z,14.07
2023-01-31T01:28:43.689Z,15.02
2023-01-31T01:31:12.238Z,15.57
2023-01-31T01:33:39.115Z,13.23
2023-01-31T01:36:08.636Z,14.38
2023-01-31T01:38:37.055Z,14.30
2023-01-31T01:41:04.995Z,12.63
2023-01-31T01:43:52.984Z,15.32
2023-01-31T01:46:28.256Z,13.30
2023-01-31T01:49:01.313Z,12.88
2023-01-31T01:51:32.215Z,13.05
2023-01-31T01:54:01.736Z,13.75
2023-01-31T01:56:32.689Z,13.45
2023-01-31T01:59:22.497Z,13.50
2023-01-31T02:01:50.596Z,12.02
2023-01-31T02:04:22.567Z,14.88
2023-01-31T02:06:49.972Z,13.40
2023-01-31T02:09:33.081Z,13.13
2023-01-31T02:11:59.975Z,13.57
2023-01-31T02:14:27.391Z,13.93
2023-01-31T02:16:54.195Z,13.68
2023-01-31T02:19:53.913Z,13.57
2023-01-31T02:22:38.312Z,12.55
2023-01-31T02:25:22.442Z,15.20
2023-01-31T02:28:16.990Z,13.77
2023-01-31T02:30:49.577Z,15.35
2023-01-31T02:33:54.146Z,13.98
2023-01-31T02:36:36.857Z,9.40
2023-01-31T02:39:46.501Z,11.52
2023-01-31T02:42:38.539Z,12.88
2023-01-31T02:45:27.995Z,13.25
2023-01-31T02:48:13.526Z,16.17
2023-01-31T02:50:59.001Z,15.63
2023-01-31T02:53:35.443Z,16.65
2023-01-31T02:56:20.399Z,18.08
2023-01-31T02:58:56.422Z,13.68
2023-01-31T03:01:29.074Z,13.20
2023-01-31T03:04:03.238Z,12.00
2023-01-31T03:06:36.625Z,13.40
2023-01-31T03:09:25.362Z,13.90
2023-01-31T03:12:10.564Z,12.27
2023-01-31T03:14:43.130Z,16.02
2023-01-31T03:17:32.908Z,13.02
2023-01-31T03:20:11.448Z,14.10
2023-01-31T03:22:42.189Z,13.57
2023-01-31T03:25:12.046Z,12.70
2023-01-31T03:27:43.681Z,12.43
2023-01-31T03:30:17.483Z,14.88
2023-01-31T03:32:51.581Z,11.52
2023-01-31T03:35:22.113Z,13.80
2023-01-31T03:38:15.393Z,13.48
2023-01-31T03:40:53.080Z,13.43
2023-01-31T03:43:42.264Z,13.88
2023-01-31T03:46:24.158Z,13.35
2023-01-31T03:48:54.835Z,12.38
2023-01-31T03:51:28.764Z,11.38
2023-01-31T03:54:01.494Z,12.93
2023-01-31T03:56:34.071Z,13.07
2023-01-31T03:59:07.147Z,14.02
2023-01-31T04:01:38.549Z,15.25
2023-01-31T04:04:14.978Z,13.40
2023-01-31T04:06:42.091Z,13.85
2023-01-31T04:09:08.844Z,16.13
2023-01-31T04:11:42.456Z,12.88
2023-01-31T04:14:10.241Z,14.07
2023-01-31T04:16:36.943Z,15.23
2023-01-31T04:19:03.710Z,13.02
2023-01-31T04:21:30.509Z,12.85
2023-01-31T04:23:57.465Z,13.52
2023-01-31T04:26:24.275Z,14.48
2023-01-31T04:28:51.721Z,12.40
2023-01-31T04:31:19.573Z,13.75
2023-01-31T04:33:46.353Z,12.27
2023-01-31T04:36:13.216Z,12.93
2023-01-31T04:38:40.172Z,12.23
2023-01-31T04:41:06.911Z,11.35
2023-01-31T04:43:33.654Z,12.05
2023-01-31T04:46:00.460Z,13.82
2023-01-31T04:48:29.022Z,15.57
2023-01-31T04:50:56.487Z,13.73
2023-01-31T04:53:23.213Z,12.68
2023-01-31T04:55:49.899Z,14.93
2023-01-31T04:58:16.739Z,14.52
2023-01-31T05:00:45.338Z,18.02
2023-01-31T05:03:12.939Z,17.08
2023-01-31T05:05:40.089Z,21.95
2023-01-31T05:08:07.005Z,31.15
2023-01-31T05:10:36.375Z,53.30
2023-01-31T05:13:03.360Z,38.10
2023-01-31T05:15:30.249Z,22.10
2023-01-31T05:18:02.898Z,20.10
2023-01-31T05:20:36.595Z,16.10
2023-01-31T05:23:03.872Z,13.70
2023-01-31T05:25:31.649Z,17.20
2023-01-31T05:27:58.734Z,15.35
2023-01-31T05:30:25.617Z,15.50
2023-01-31T05:32:52.583Z,12.88
2023-01-31T05:35:20.253Z,12.38
2023-01-31T05:37:47.113Z,13.45
2023-01-31T05:40:16.801Z,14.60
2023-01-31T05:42:43.838Z,17.02
2023-01-31T05:45:11.639Z,14.02
2023-01-31T05:47:38.532Z,17.92
2023-01-31T05:50:05.814Z,18.77
2023-01-31T05:52:32.529Z,15.32
2023-01-31T05:54:59.309Z,31.08
2023-01-31T05:57:26.424Z,29.77
2023-01-31T05:59:53.173Z,22.88
2023-01-31T06:02:19.869Z,17.65
2023-01-31T06:04:47.296Z,14.88
2023-01-31T06:07:13.991Z,19.13
2023-01-31T06:09:42.296Z,20.08
2023-01-31T06:12:17.016Z,29.95
2023-01-31T06:14:44.846Z,15.98
2023-01-31T06:17:11.824Z,22.50
2023-01-31T06:19:38.609Z,19.75
2023-01-31T06:22:05.874Z,17.42
2023-01-31T06:24:32.999Z,14.60
2023-01-31T06:26:59.832Z,16.27
2023-01-31T06:29:26.555Z,20.25
2023-01-31T06:31:53.771Z,16.85
2023-01-31T06:34:20.858Z,14.43
2023-01-31T06:36:47.609Z,19.73
2023-01-31T06:39:14.877Z,17.83
2023-01-31T06:41:41.753Z,23.23
2023-01-31T06:44:08.540Z,17.65
2023-01-31T06:46:35.683Z,15.68
2023-01-31T06:49:02.553Z,14.82
2023-01-31T06:51:29.350Z,18.23
2023-01-31T06:53:56.679Z,13.80
2023-01-31T06:56:23.891Z,13.32
2023-01-31T06:58:50.622Z,12.85
2023-01-31T07:01:17.486Z,13.70
2023-01-31T07:03:44.691Z,16.20
2023-01-31T07:06:11.986Z,16.10
2023-01-31T07:08:38.726Z,16.42
2023-01-31T07:11:05.881Z,14.45
2023-01-31T07:13:33.038Z,13.32
2023-01-31T07:15:59.914Z,14.00
2023-01-31T07:18:26.646Z,13.55
2023-01-31T07:20:53.626Z,14.05
2023-01-31T07:23:20.572Z,13.23
2023-01-31T07:25:47.354Z,14.30
2023-01-31T07:28:14.044Z,13.57
2023-01-31T07:30:43.793Z,13.85
2023-01-31T07:33:11.706Z,16.30
2023-01-31T07:35:38.482Z,28.08
2023-01-31T07:38:05.526Z,34.17
2023-01-31T07:40:32.450Z,17.15
2023-01-31T07:43:00.260Z,25.10
2023-01-31T07:45:27.553Z,21.77
2023-01-31T07:47:58.472Z,17.80
2023-01-31T07:50:27.239Z,15.43
2023-01-31T07:52:54.039Z,14.32
2023-01-31T07:55:21.138Z,14.77
2023-01-31T07:57:48.499Z,15.48
2023-01-31T08:00:34.228Z,18.25
2023-01-31T08:03:19.633Z,15.13
2023-01-31T08:05:47.694Z,14.55
2023-01-31T08:08:14.719Z,13.82
2023-01-31T08:10:41.539Z,15.25
2023-01-31T08:13:08.340Z,15.60
2023-01-31T08:15:35.036Z,15.48
2023-01-31T08:18:03.372Z,16.50
2023-01-31T08:20:32.075Z,16.42
2023-01-31T08:22:59.968Z,14.90
2023-01-31T08:25:29.280Z,14.80
2023-01-31T08:28:00.239Z,12.43
2023-01-31T08:30:28.458Z,14.77
2023-01-31T08:32:55.817Z,15.20
2023-01-31T08:35:22.907Z,17.75
2023-01-31T08:37:49.661Z,12.85
2023-01-31T08:40:16.829Z,13.15
2023-01-31T08:42:43.553Z,12.10
2023-01-31T08:45:10.788Z,15.18
2023-01-31T08:47:38.811Z,11.15
2023-01-31T08:50:10.895Z,11.73
2023-01-31T08:52:42.616Z,11.73
2023-01-31T08:55:13.822Z,12.05
2023-01-31T08:57:52.629Z,15.15
2023-01-31T09:00:24.702Z,9.88
2023-01-31T09:02:53.200Z,10.35
2023-01-31T09:05:20.459Z,10.27
2023-01-31T09:07:47.542Z,10.13
2023-01-31T09:10:14.362Z,10.02
2023-01-31T09:12:41.102Z,7.22
2023-01-31T09:15:08.510Z,9.32
2023-01-31T09:17:35.382Z,10.65
2023-01-31T09:20:06.590Z,9.30
2023-01-31T09:22:34.643Z,10.07
2023-01-31T09:25:02.352Z,8.32
2023-01-31T09:27:29.790Z,8.27
2023-01-31T09:29:56.653Z,10.25
2023-01-31T09:32:23.457Z,7.80
2023-01-31T09:34:50.285Z,10.18
2023-01-31T09:37:17.285Z,9.13
2023-01-31T09:39:44.074Z,9.13
2023-01-31T09:42:22.183Z,13.27
2023-01-31T09:45:02.902Z,10.23
2023-01-31T09:47:36.277Z,8.68
2023-01-31T09:50:05.990Z,7.28
2023-01-31T09:52:33.273Z,8.25
2023-01-31T09:55:00.351Z,7.93
2023-01-31T09:57:30.718Z,11.52
2023-01-31T10:00:25.901Z,7.85
2023-01-31T10:05:30.565Z,7.80
2023-01-31T10:08:36.105Z,16.17
2023-01-31T10:11:11.564Z,6.53
2023-01-31T10:13:57.846Z,9.10
2023-01-31T10:16:36.345Z,10.27
2023-01-31T10:19:08.442Z,10.85
2023-01-31T10:21:42.417Z,13.20
2023-01-31T10:24:18.860Z,11.27
2023-01-31T10:26:48.373Z,13.98
2023-01-31T10:29:29.501Z,19.65
2023-01-31T10:32:01.922Z,9.98
2023-01-31T10:34:44.475Z,8.30
2023-01-31T10:37:30.209Z,10.02
2023-01-31T10:40:15.244Z,9.05
2023-01-31T10:42:46.035Z,10.15
2023-01-31T10:45:18.505Z,9.35
2023-01-31T10:48:01.230Z,6.97
2023-01-31T10:51:09.969Z,6.75
2023-01-31T10:54:06.081Z,9.48
2023-01-31T10:56:35.800Z,9.57
2023-01-31T10:59:17.245Z,11.02
2023-01-31T11:01:44.061Z,7.63
2023-01-31T11:04:43.228Z,8.50
2023-01-31T11:07:10.831Z,8.30
2023-01-31T11:09:41.005Z,7.55
2023-01-31T11:12:08.935Z,9.10
2023-01-31T11:14:36.816Z,8.23
2023-01-31T11:17:06.702Z,8.45
2023-01-31T11:19:41.067Z,8.75
2023-01-31T11:24:38.763Z,8.65
2023-01-31T11:27:07.325Z,9.82
2023-01-31T11:29:38.137Z,10.00
2023-01-31T11:32:12.867Z,8.68
2023-01-31T11:34:40.979Z,9.23
2023-01-31T11:37:18.704Z,9.65
2023-01-31T11:39:56.641Z,11.65
2023-01-31T11:42:23.761Z,9.02
2023-01-31T11:45:18.730Z,7.95
2023-01-31T11:47:58.182Z,13.93
2023-01-31T11:50:40.847Z,11.88
2023-01-31T11:53:18.858Z,27.13
2023-01-31T11:55:47.786Z,17.25
2023-01-31T11:58:26.122Z,8.20
2023-01-31T12:00:59.173Z,10.10
2023-01-31T12:03:27.762Z,7.78
2023-01-31T12:06:29.072Z,10.05
2023-01-31T12:08:58.036Z,9.05
2023-01-31T12:11:33.433Z,10.38
2023-01-31T12:14:16.516Z,7.70
2023-01-31T12:16:44.898Z,6.82
2023-01-31T12:19:11.652Z,14.35
2023-01-31T12:21:56.481Z,9.90
2023-01-31T12:27:21.622Z,11.30
2023-01-31T12:30:03.449Z,8.63
2023-01-31T12:33:15.418Z,15.05
2023-01-31T12:36:07.644Z,11.90
2023-01-31T12:38:46.305Z,11.00
2023-01-31T12:41:18.882Z,7.93
2023-01-31T12:44:16.778Z,7.75
2023-01-31T12:47:24.085Z,8.73
2023-01-31T12:49:53.605Z,8.95
2023-01-31T12:52:46.749Z,8.10
2023-01-31T12:55:25.605Z,6.55
2023-01-31T12:58:15.750Z,9.40
2023-01-31T13:00:48.802Z,7.55
2023-01-31T13:03:52.298Z,8.43
2023-01-31T13:06:26.369Z,10.15
2023-01-31T13:09:08.087Z,8.32
2023-01-31T13:11:41.095Z,8.02
2023-01-31T13:14:23.079Z,10.05
2023-01-31T13:16:55.049Z,14.55
2023-01-31T13:19:45.229Z,11.57
2023-01-31T13:22:22.086Z,10.05
2023-01-31T13:24:58.251Z,11.05
2023-01-31T13:27:40.930Z,11.27
2023-01-31T13:30:21.656Z,13.05
2023-01-31T13:32:55.243Z,11.65
2023-01-31T13:35:41.933Z,12.73
2023-01-31T13:38:15.726Z,12.23
2023-01-31T13:40:55.051Z,11.90
2023-01-31T13:43:22.025Z,10.48
2023-01-31T13:46:04.395Z,9.82
2023-01-31T13:48:56.220Z,15.90
2023-01-31T13:51:25.133Z,16.00
2023-01-31T13:54:04.309Z,14.30
2023-01-31T13:56:35.290Z,10.77
2023-01-31T13:59:02.812Z,10.40
2023-01-31T14:01:34.594Z,8.80
2023-01-31T14:04:14.734Z,7.07
2023-01-31T14:06:56.445Z,7.20
2023-01-31T14:09:33.664Z,13.73
2023-01-31T14:12:07.282Z,11.32
2023-01-31T14:14:41.622Z,7.63
2023-01-31T14:20:05.639Z,10.50
2023-01-31T14:22:39.672Z,8.20
2023-01-31T14:25:16.000Z,10.63
2023-01-31T14:27:56.522Z,8.02
2023-01-31T14:30:37.440Z,7.97
2023-01-31T14:33:06.311Z,6.93
2023-01-31T14:35:57.303Z,7.35
2023-01-31T14:38:24.035Z,9.52
2023-01-31T14:41:19.543Z,9.02
2023-01-31T14:44:21.208Z,9.85
2023-01-31T14:47:09.574Z,9.55
2023-01-31T14:50:10.333Z,10.88
2023-01-31T14:52:55.178Z,9.45
2023-01-31T14:55:36.986Z,9.23
2023-01-31T14:58:06.455Z,9.38
2023-01-31T15:00:36.736Z,8.75
2023-01-31T15:03:20.595Z,9.48
2023-01-31T15:06:12.019Z,12.17
2023-01-31T15:08:42.119Z,10.13
2023-01-31T15:11:14.115Z,10.32
2023-01-31T15:13:53.935Z,9.90
2023-01-31T15:16:31.571Z,12.00
2023-01-31T15:19:09.453Z,11.07
2023-01-31T15:21:55.711Z,19.95
2023-01-31T15:24:32.335Z,12.55
2023-01-31T15:27:01.045Z,9.75
2023-01-31T15:29:52.825Z,20.77
2023-01-31T15:32:29.793Z,13.18
2023-01-31T15:35:04.341Z,15.02
2023-01-31T15:37:35.217Z,11.85
2023-01-31T15:40:24.043Z,11.88
2023-01-31T15:42:50.803Z,9.00
2023-01-31T15:45:25.251Z,10.55
2023-01-31T15:50:28.568Z,9.13
2023-01-31T15:52:57.187Z,11.00
2023-01-31T15:55:24.357Z,11.00
2023-01-31T15:57:58.311Z,8.27
2023-01-31T16:00:29.874Z,8.60
2023-01-31T16:03:02.988Z,9.60
2023-01-31T16:05:40.005Z,7.80
2023-01-31T16:08:36.185Z,8.38
2023-01-31T16:11:05.990Z,6.93
2023-01-31T16:13:38.790Z,8.95
2023-01-31T16:16:07.301Z,8.55
2023-01-31T16:18:35.764Z,7.13
2023-01-31T16:21:15.966Z,7.70
2023-01-31T16:23:43.253Z,7.95
2023-01-31T16:26:23.079Z,7.15
2023-01-31T16:28:57.901Z,8.05
2023-01-31T16:31:27.873Z,7.78
2023-01-31T16:34:00.223Z,9.32
2023-01-31T16:36:52.317Z,9.18
2023-01-31T16:39:37.401Z,8.43
2023-01-31T16:42:23.737Z,11.55
2023-01-31T16:44:51.324Z,8.13
2023-01-31T16:47:33.494Z,10.88
2023-01-31T16:50:32.747Z,11.80
2023-01-31T16:53:25.953Z,8.52
2023-01-31T16:56:14.399Z,12.23
2023-01-31T16:58:55.658Z,9.15
2023-01-31T17:01:31.932Z,11.88
2023-01-31T17:04:19.332Z,13.00
2023-01-31T17:06:51.202Z,9.27
2023-01-31T17:09:22.160Z,8.77
2023-01-31T17:11:48.891Z,9.07
2023-01-31T17:14:15.660Z,14.18
2023-01-31T17:16:42.351Z,15.25
2023-01-31T17:19:09.103Z,12.63
2023-01-31T17:21:40.841Z,10.95
2023-01-31T17:24:16.210Z,16.23
2023-01-31T17:26:43.369Z,8.93
2023-01-31T17:29:10.309Z,15.57
2023-01-31T17:31:37.474Z,10.65
2023-01-31T17:34:05.716Z,10.85
2023-01-31T17:36:32.409Z,11.90
2023-01-31T17:38:59.128Z,10.10
2023-01-31T17:41:25.814Z,9.25
2023-01-31T17:43:52.870Z,10.07
2023-01-31T17:46:19.866Z,10.05
2023-01-31T17:48:46.725Z,11.02
2023-01-31T17:51:14.422Z,10.45
2023-01-31T17:53:49.398Z,10.07
2023-01-31T17:56:18.044Z,9.95
2023-01-31T17:58:44.955Z,15.07
2023-01-31T18:01:13.937Z,13.02
2023-01-31T18:03:41.635Z,9.70
2023-01-31T18:06:09.384Z,11.75
2023-01-31T18:08:36.779Z,7.45
2023-01-31T18:11:08.893Z,13.40
2023-01-31T18:13:37.930Z,11.45
2023-01-31T18:16:18.126Z,10.07
2023-01-31T18:18:44.914Z,9.75
2023-01-31T18:21:13.250Z,11.70
2023-01-31T18:23:40.108Z,13.18
2023-01-31T18:26:08.812Z,11.18
2023-01-31T18:28:36.077Z,9.98
2023-01-31T18:31:10.584Z,11.95
2023-01-31T18:33:38.100Z,10.95
2023-01-31T18:36:06.224Z,10.52
2023-01-31T18:38:33.131Z,9.93
2023-01-31T18:41:02.721Z,11.27
2023-01-31T18:43:29.758Z,14.07
2023-01-31T18:45:56.534Z,14.68
2023-01-31T18:48:23.232Z,14.07
2023-01-31T18:50:49.917Z,11.63
2023-01-31T18:53:16.610Z,10.27
2023-01-31T18:55:43.284Z,10.20
2023-01-31T18:58:10.005Z,12.15
2023-01-31T19:00:36.742Z,13.60
2023-01-31T19:03:03.765Z,12.63
2023-01-31T19:05:30.602Z,15.57
2023-01-31T19:07:57.574Z,13.15
2023-01-31T19:10:24.278Z,10.82
2023-01-31T19:12:50.991Z,12.18
2023-01-31T19:15:17.810Z,16.65
2023-01-31T19:17:44.472Z,12.40
2023-01-31T19:20:12.045Z,9.82
2023-01-31T19:22:38.799Z,14.30
2023-01-31T19:25:09.058Z,10.88
2023-01-31T19:27:35.822Z,9.13
2023-01-31T19:30:02.666Z,11.07
2023-01-31T19:32:31.014Z,9.88
2023-01-31T19:34:57.704Z,13.10
2023-01-31T19:37:24.428Z,12.30
2023-01-31T19:39:51.379Z,8.90
2023-01-31T19:42:18.296Z,12.32
2023-01-31T19:44:45.023Z,12.23
2023-01-31T19:47:11.806Z,18.05
2023-01-31T19:49:38.532Z,19.95
2023-01-31T19:52:05.321Z,10.40
2023-01-31T19:54:32.064Z,10.68
2023-01-31T19:56:58.789Z,10.20
2023-01-31T19:59:25.536Z,8.55
2023-01-31T20:01:52.301Z,10.60
2023-01-31T20:04:19.295Z,10.57
2023-01-31T20:06:46.122Z,8.30
2023-01-31T20:09:19.887Z,10.07
2023-01-31T20:11:46.839Z,9.45
2023-01-31T20:14:13.743Z,9.88
2023-01-31T20:16:40.532Z,10.13
2023-01-31T20:19:07.666Z,10.70
2023-01-31T20:21:34.611Z,10.55
2023-01-31T20:24:01.355Z,10.65
2023-01-31T20:26:29.724Z,11.40
2023-01-31T20:28:56.724Z,9.85
2023-01-31T20:31:23.565Z,14.02
2023-01-31T20:33:54.948Z,11.88
2023-01-31T20:36:25.439Z,12.52
2023-01-31T20:38:52.643Z,11.13
2023-01-31T20:41:19.497Z,12.27
2023-01-31T20:43:46.249Z,13.98
2023-01-31T20:46:14.295Z,12.27
2023-01-31T20:48:42.997Z,16.90
2023-01-31T20:51:09.995Z,15.90
2023-01-31T20:53:37.212Z,12.20
2023-01-31T20:56:12.605Z,15.75
2023-01-31T20:58:40.997Z,13.77
2023-01-31T21:01:09.161Z,11.85
2023-01-31T21:03:36.898Z,11.13
2023-01-31T21:06:05.305Z,15.63
2023-01-31T21:08:32.412Z,13.63
2023-01-31T21:10:59.704Z,8.77
2023-01-31T21:13:31.487Z,10.65
2023-01-31T21:16:00.230Z,11.00
2023-01-31T21:18:28.618Z,9.65
2023-01-31T21:20:55.486Z,11.60
2023-01-31T21:23:22.657Z,11.85
2023-01-31T21:25:49.447Z,9.02
2023-01-31T21:28:16.223Z,9.15
2023-01-31T21:30:43.305Z,10.10
2023-01-31T21:33:10.090Z,8.30
2023-01-31T21:35:36.805Z,10.60
2023-01-31T21:38:03.566Z,11.23
2023-01-31T21:40:30.281Z,9.07
2023-01-31T21:42:57.008Z,9.88
2023-01-31T21:45:39.657Z,10.75
2023-01-31T21:48:27.697Z,9.70
2023-01-31T21:50:55.118Z,10.48
2023-01-31T21:53:22.066Z,8.73
2023-01-31T21:55:48.815Z,10.88
2023-01-31T21:58:15.755Z,9.82
2023-01-31T22:00:44.022Z,10.48
2023-01-31T22:03:11.226Z,11.15
2023-01-31T22:05:37.995Z,9.82
2023-01-31T22:08:04.947Z,10.15
2023-01-31T22:10:31.849Z,9.18
2023-01-31T22:12:58.535Z,9.43
2023-01-31T22:15:25.453Z,9.45
2023-01-31T22:17:52.749Z,9.60
2023-01-31T22:20:19.821Z,10.48
2023-01-31T22:22:48.536Z,11.25
2023-01-31T22:25:15.447Z,10.40
2023-01-31T22:27:42.228Z,10.63
2023-01-31T22:30:16.886Z,10.20
2023-01-31T22:32:43.937Z,12.35
2023-01-31T22:35:10.754Z,9.52
2023-01-31T22:37:37.449Z,8.80
2023-01-31T22:40:04.489Z,11.00
2023-01-31T22:42:31.208Z,10.48
2023-01-31T22:44:57.930Z,9.15
2023-01-31T22:47:24.984Z,9.00
2023-01-31T22:49:51.744Z,10.27
2023-01-31T22:52:18.541Z,9.82
2023-01-31T22:54:45.342Z,10.45
2023-01-31T22:57:12.833Z,10.63
2023-01-31T22:59:39.519Z,10.88
2023-01-31T23:02:06.513Z,11.30
2023-01-31T23:04:33.382Z,12.27
2023-01-31T23:07:00.127Z,9.82
2023-01-31T23:09:26.889Z,9.25
2023-01-31T23:11:53.559Z,10.38
2023-01-31T23:14:20.413Z,9.13
2023-01-31T23:17:05.647Z,10.27
2023-01-31T23:19:32.316Z,8.23
2023-01-31T23:21:58.992Z,8.35
2023-01-31T23:24:25.678Z,8.48
2023-01-31T23:26:54.413Z,9.60
2023-01-31T23:29:21.271Z,12.10
2023-01-31T23:31:48.117Z,8.10
2023-01-31T23:34:14.836Z,9.75
2023-01-31T23:36:41.584Z,9.98
2023-01-31T23:39:09.868Z,7.60
2023-01-31T23:41:36.605Z,10.30
2023-01-31T23:44:03.625Z,9.57
2023-01-31T23:46:30.470Z,8.65
2023-01-31T23:48:57.318Z,8.80
2023-01-31T23:51:24.050Z,10.73
2023-01-31T23:53:50.856Z,8.82
2023-01-31T23:56:17.541Z,8.77
2023-01-31T23:58:44.323Z,10.93
